sensor_id;sensor_type;location;lat;lon;timestamp;P1;durP1;ratioP1;P2;durP2;ratioP2
40867;SDS011;26586;50.708;22.412;2023-01-08T00:00:49;6.50;;;3.90;;
40867;SDS011;26586;50.708;22.412;2023-01-08T00:03:36;8.77;;;4.40;;
40867;SDS011;26586;50.708;22.412;2023-01-08T00:06:03;8.40;;;4.15;;
40867;SDS011;26586;50.708;22.412;2023-01-08T00:08:31;8.75;;;3.88;;
40867;SDS011;26586;50.708;22.412;2023-01-08T00:10:58;8.10;;;4.20;;
40867;SDS011;26586;50.708;22.412;2023-01-08T00:13:24;5.40;;;3.85;;
40867;SDS011;26586;50.708;22.412;2023-01-08T00:15:51;5.65;;;3.63;;
40867;SDS011;26586;50.708;22.412;2023-01-08T00:18:18;5.80;;;3.55;;
40867;SDS011;26586;50.708;22.412;2023-01-08T00:20:44;6.97;;;4.18;;
40867;SDS011;26586;50.708;22.412;2023-01-08T00:23:12;7.10;;;4.55;;
40867;SDS011;26586;50.708;22.412;2023-01-08T00:25:39;6.22;;;3.85;;
40867;SDS011;26586;50.708;22.412;2023-01-08T00:28:05;5.50;;;3.60;;
40867;SDS011;26586;50.708;22.412;2023-01-08T00:30:32;6.85;;;3.42;;
40867;SDS011;26586;50.708;22.412;2023-01-08T00:32:58;5.50;;;3.13;;
40867;SDS011;26586;50.708;22.412;2023-01-08T00:35:24;7.50;;;4.15;;
40867;SDS011;26586;50.708;22.412;2023-01-08T00:37:51;6.83;;;3.50;;
40867;SDS011;26586;50.708;22.412;2023-01-08T00:40:17;5.45;;;3.42;;
40867;SDS011;26586;50.708;22.412;2023-01-08T00:42:43;6.33;;;3.77;;
40867;SDS011;26586;50.708;22.412;2023-01-08T00:45:09;9.18;;;4.07;;
40867;SDS011;26586;50.708;22.412;2023-01-08T00:47:36;7.28;;;3.75;;
40867;SDS011;26586;50.708;22.412;2023-01-08T00:50:02;4.95;;;3.50;;
40867;SDS011;26586;50.708;22.412;2023-01-08T00:52:29;6.93;;;3.67;;
40867;SDS011;26586;50.708;22.412;2023-01-08T00:54:55;6.30;;;3.78;;
40867;SDS011;26586;50.708;22.412;2023-01-08T00:57:21;6.95;;;3.85;;
40867;SDS011;26586;50.708;22.412;2023-01-08T00:59:47;5.47;;;3.50;;
40867;SDS011;26586;50.708;22.412;2023-01-08T01:02:14;7.38;;;3.60;;
40867;SDS011;26586;50.708;22.412;2023-01-08T01:04:40;6.38;;;4.15;;
40867;SDS011;26586;50.708;22.412;2023-01-08T01:07:06;8.07;;;4.00;;
40867;SDS011;26586;50.708;22.412;2023-01-08T01:09:32;5.63;;;3.83;;
40867;SDS011;26586;50.708;22.412;2023-01-08T01:11:59;7.00;;;3.60;;
40867;SDS011;26586;50.708;22.412;2023-01-08T01:14:25;5.80;;;3.35;;
40867;SDS011;26586;50.708;22.412;2023-01-08T01:16:51;4.63;;;3.20;;
40867;SDS011;26586;50.708;22.412;2023-01-08T01:19:17;4.78;;;3.45;;
40867;SDS011;26586;50.708;22.412;2023-01-08T01:21:44;9.40;;;3.23;;
40867;SDS011;26586;50.708;22.412;2023-01-08T01:24:10;7.30;;;3.95;;
40867;SDS011;26586;50.708;22.412;2023-01-08T01:26:37;6.72;;;3.83;;
40867;SDS011;26586;50.708;22.412;2023-01-08T01:29:03;6.90;;;3.50;;
40867;SDS011;26586;50.708;22.412;2023-01-08T01:31:30;6.22;;;3.33;;
40867;SDS011;26586;50.708;22.412;2023-01-08T01:33:57;5.80;;;3.67;;
40867;SDS011;26586;50.708;22.412;2023-01-08T01:36:24;5.50;;;3.38;;
40867;SDS011;26586;50.708;22.412;2023-01-08T01:38:51;9.15;;;3.90;;
40867;SDS011;26586;50.708;22.412;2023-01-08T01:41:26;5.07;;;3.25;;
40867;SDS011;26586;50.708;22.412;2023-01-08T01:46:57;5.65;;;3.65;;
40867;SDS011;26586;50.708;22.412;2023-01-08T01:49:25;5.35;;;2.97;;
40867;SDS011;26586;50.708;22.412;2023-01-08T01:51:53;5.00;;;3.22;;
40867;SDS011;26586;50.708;22.412;2023-01-08T01:54:21;7.55;;;3.00;;
40867;SDS011;26586;50.708;22.412;2023-01-08T01:56:48;5.10;;;3.38;;
40867;SDS011;26586;50.708;22.412;2023-01-08T01:59:15;6.17;;;3.57;;
40867;SDS011;26586;50.708;22.412;2023-01-08T02:01:41;5.60;;;2.92;;
40867;SDS011;26586;50.708;22.412;2023-01-08T02:04:09;9.97;;;4.17;;
40867;SDS011;26586;50.708;22.412;2023-01-08T02:11:49;6.05;;;3.40;;
40867;SDS011;26586;50.708;22.412;2023-01-08T02:17:22;7.75;;;3.35;;
40867;SDS011;26586;50.708;22.412;2023-01-08T02:20:01;5.18;;;3.17;;
40867;SDS011;26586;50.708;22.412;2023-01-08T02:23:13;9.45;;;3.80;;
40867;SDS011;26586;50.708;22.412;2023-01-08T02:28:45;6.95;;;4.00;;
40867;SDS011;26586;50.708;22.412;2023-01-08T02:31:33;7.75;;;3.30;;
40867;SDS011;26586;50.708;22.412;2023-01-08T02:34:02;6.32;;;3.30;;
40867;SDS011;26586;50.708;22.412;2023-01-08T02:49:59;61.60;;;27.55;;
40867;SDS011;26586;50.708;22.412;2023-01-08T02:52:57;21.13;;;11.82;;
40867;SDS011;26586;50.708;22.412;2023-01-08T02:55:34;8.57;;;4.35;;
40867;SDS011;26586;50.708;22.412;2023-01-08T02:58:03;7.05;;;3.50;;
40867;SDS011;26586;50.708;22.412;2023-01-08T03:03:03;8.10;;;3.45;;
40867;SDS011;26586;50.708;22.412;2023-01-08T03:05:44;7.82;;;5.15;;
40867;SDS011;26586;50.708;22.412;2023-01-08T03:08:12;10.90;;;8.50;;
40867;SDS011;26586;50.708;22.412;2023-01-08T03:10:40;9.65;;;5.40;;
40867;SDS011;26586;50.708;22.412;2023-01-08T03:13:11;9.25;;;4.45;;
40867;SDS011;26586;50.708;22.412;2023-01-08T03:15:45;5.95;;;3.67;;
40867;SDS011;26586;50.708;22.412;2023-01-08T03:18:16;5.05;;;2.63;;
40867;SDS011;26586;50.708;22.412;2023-01-08T03:20:46;6.93;;;3.60;;
40867;SDS011;26586;50.708;22.412;2023-01-08T03:23:13;7.18;;;3.20;;
40867;SDS011;26586;50.708;22.412;2023-01-08T03:28:12;5.65;;;3.45;;
40867;SDS011;26586;50.708;22.412;2023-01-08T03:30:47;4.53;;;2.90;;
40867;SDS011;26586;50.708;22.412;2023-01-08T03:33:14;6.55;;;3.10;;
40867;SDS011;26586;50.708;22.412;2023-01-08T03:35:42;4.88;;;2.90;;
40867;SDS011;26586;50.708;22.412;2023-01-08T03:38:14;7.00;;;3.33;;
40867;SDS011;26586;50.708;22.412;2023-01-08T03:40:52;4.32;;;2.88;;
40867;SDS011;26586;50.708;22.412;2023-01-08T03:43:21;6.65;;;3.67;;
40867;SDS011;26586;50.708;22.412;2023-01-08T03:45:49;9.13;;;4.57;;
40867;SDS011;26586;50.708;22.412;2023-01-08T03:48:20;4.82;;;3.15;;
40867;SDS011;26586;50.708;22.412;2023-01-08T03:50:48;9.65;;;3.55;;
40867;SDS011;26586;50.708;22.412;2023-01-08T03:53:14;7.32;;;3.38;;
40867;SDS011;26586;50.708;22.412;2023-01-08T03:55:41;5.90;;;3.40;;
40867;SDS011;26586;50.708;22.412;2023-01-08T03:58:07;5.78;;;3.80;;
40867;SDS011;26586;50.708;22.412;2023-01-08T04:00:33;7.00;;;3.75;;
40867;SDS011;26586;50.708;22.412;2023-01-08T04:03:00;7.53;;;4.63;;
40867;SDS011;26586;50.708;22.412;2023-01-08T04:05:26;6.57;;;4.17;;
40867;SDS011;26586;50.708;22.412;2023-01-08T04:07:55;7.15;;;4.28;;
40867;SDS011;26586;50.708;22.412;2023-01-08T04:10:22;9.88;;;5.20;;
40867;SDS011;26586;50.708;22.412;2023-01-08T04:12:49;10.10;;;6.43;;
40867;SDS011;26586;50.708;22.412;2023-01-08T04:15:15;14.57;;;6.20;;
40867;SDS011;26586;50.708;22.412;2023-01-08T04:17:42;8.35;;;5.40;;
40867;SDS011;26586;50.708;22.412;2023-01-08T04:20:08;8.30;;;4.17;;
40867;SDS011;26586;50.708;22.412;2023-01-08T04:22:34;11.67;;;5.60;;
40867;SDS011;26586;50.708;22.412;2023-01-08T04:25:01;7.97;;;3.87;;
40867;SDS011;26586;50.708;22.412;2023-01-08T04:27:27;18.35;;;11.10;;
40867;SDS011;26586;50.708;22.412;2023-01-08T04:29:53;18.70;;;8.57;;
40867;SDS011;26586;50.708;22.412;2023-01-08T04:32:19;26.75;;;15.77;;
40867;SDS011;26586;50.708;22.412;2023-01-08T04:34:46;16.90;;;11.17;;
40867;SDS011;26586;50.708;22.412;2023-01-08T04:37:12;10.63;;;6.05;;
40867;SDS011;26586;50.708;22.412;2023-01-08T04:39:38;27.40;;;14.73;;
40867;SDS011;26586;50.708;22.412;2023-01-08T04:42:04;16.08;;;8.07;;
40867;SDS011;26586;50.708;22.412;2023-01-08T04:44:30;16.57;;;6.93;;
40867;SDS011;26586;50.708;22.412;2023-01-08T04:46:56;9.95;;;4.85;;
40867;SDS011;26586;50.708;22.412;2023-01-08T04:49:23;14.38;;;6.78;;
40867;SDS011;26586;50.708;22.412;2023-01-08T04:51:49;12.05;;;6.32;;
40867;SDS011;26586;50.708;22.412;2023-01-08T04:54:15;15.63;;;7.60;;
40867;SDS011;26586;50.708;22.412;2023-01-08T04:56:41;18.73;;;8.10;;
40867;SDS011;26586;50.708;22.412;2023-01-08T04:59:08;10.80;;;6.33;;
40867;SDS011;26586;50.708;22.412;2023-01-08T05:01:34;12.85;;;6.38;;
40867;SDS011;26586;50.708;22.412;2023-01-08T05:04:01;12.57;;;7.77;;
40867;SDS011;26586;50.708;22.412;2023-01-08T05:06:29;10.30;;;6.85;;
40867;SDS011;26586;50.708;22.412;2023-01-08T05:08:56;9.77;;;4.57;;
40867;SDS011;26586;50.708;22.412;2023-01-08T05:11:23;12.02;;;6.18;;
40867;SDS011;26586;50.708;22.412;2023-01-08T05:13:50;11.77;;;6.28;;
40867;SDS011;26586;50.708;22.412;2023-01-08T05:18:43;7.23;;;4.60;;
40867;SDS011;26586;50.708;22.412;2023-01-08T05:21:10;7.97;;;5.10;;
40867;SDS011;26586;50.708;22.412;2023-01-08T05:23:37;9.63;;;5.55;;
40867;SDS011;26586;50.708;22.412;2023-01-08T05:26:04;8.95;;;5.32;;
40867;SDS011;26586;50.708;22.412;2023-01-08T05:28:31;16.42;;;10.95;;
40867;SDS011;26586;50.708;22.412;2023-01-08T05:30:58;9.20;;;4.93;;
40867;SDS011;26586;50.708;22.412;2023-01-08T05:33:24;9.07;;;4.78;;
40867;SDS011;26586;50.708;22.412;2023-01-08T05:35:51;7.57;;;4.90;;
40867;SDS011;26586;50.708;22.412;2023-01-08T05:38:17;7.33;;;4.40;;
40867;SDS011;26586;50.708;22.412;2023-01-08T05:40:44;7.82;;;4.63;;
40867;SDS011;26586;50.708;22.412;2023-01-08T05:43:10;8.93;;;4.95;;
40867;SDS011;26586;50.708;22.412;2023-01-08T05:45:37;8.60;;;5.55;;
40867;SDS011;26586;50.708;22.412;2023-01-08T05:48:03;10.50;;;5.80;;
40867;SDS011;26586;50.708;22.412;2023-01-08T05:50:31;7.38;;;5.90;;
40867;SDS011;26586;50.708;22.412;2023-01-08T05:52:57;8.63;;;5.15;;
40867;SDS011;26586;50.708;22.412;2023-01-08T05:55:24;6.00;;;3.80;;
40867;SDS011;26586;50.708;22.412;2023-01-08T05:57:50;7.17;;;4.90;;
40867;SDS011;26586;50.708;22.412;2023-01-08T06:00:16;7.63;;;4.68;;
40867;SDS011;26586;50.708;22.412;2023-01-08T06:02:46;8.13;;;4.68;;
40867;SDS011;26586;50.708;22.412;2023-01-08T06:05:12;16.90;;;12.00;;
40867;SDS011;26586;50.708;22.412;2023-01-08T06:07:39;6.90;;;4.50;;
40867;SDS011;26586;50.708;22.412;2023-01-08T06:10:05;8.40;;;4.82;;
40867;SDS011;26586;50.708;22.412;2023-01-08T06:12:32;7.65;;;4.50;;
40867;SDS011;26586;50.708;22.412;2023-01-08T06:14:58;7.18;;;4.80;;
40867;SDS011;26586;50.708;22.412;2023-01-08T06:17:24;7.53;;;5.53;;
40867;SDS011;26586;50.708;22.412;2023-01-08T06:19:50;8.30;;;4.93;;
40867;SDS011;26586;50.708;22.412;2023-01-08T06:22:16;10.07;;;5.80;;
40867;SDS011;26586;50.708;22.412;2023-01-08T06:24:42;8.10;;;5.10;;
40867;SDS011;26586;50.708;22.412;2023-01-08T06:27:09;7.15;;;4.70;;
40867;SDS011;26586;50.708;22.412;2023-01-08T06:29:35;11.75;;;6.65;;
40867;SDS011;26586;50.708;22.412;2023-01-08T06:32:01;8.27;;;5.63;;
40867;SDS011;26586;50.708;22.412;2023-01-08T06:34:27;10.30;;;5.00;;
40867;SDS011;26586;50.708;22.412;2023-01-08T06:36:53;9.88;;;5.88;;
40867;SDS011;26586;50.708;22.412;2023-01-08T06:39:20;13.98;;;6.45;;
40867;SDS011;26586;50.708;22.412;2023-01-08T06:41:46;9.57;;;5.13;;
40867;SDS011;26586;50.708;22.412;2023-01-08T06:44:12;12.00;;;6.85;;
40867;SDS011;26586;50.708;22.412;2023-01-08T06:46:38;9.10;;;6.63;;
40867;SDS011;26586;50.708;22.412;2023-01-08T06:49:07;11.38;;;7.80;;
40867;SDS011;26586;50.708;22.412;2023-01-08T06:51:34;14.35;;;11.50;;
40867;SDS011;26586;50.708;22.412;2023-01-08T06:54:01;13.05;;;8.13;;
40867;SDS011;26586;50.708;22.412;2023-01-08T06:56:27;17.80;;;12.43;;
40867;SDS011;26586;50.708;22.412;2023-01-08T06:58:53;12.82;;;8.43;;
40867;SDS011;26586;50.708;22.412;2023-01-08T07:01:20;13.50;;;8.00;;
40867;SDS011;26586;50.708;22.412;2023-01-08T07:03:47;11.77;;;7.53;;
40867;SDS011;26586;50.708;22.412;2023-01-08T07:06:14;25.55;;;20.75;;
40867;SDS011;26586;50.708;22.412;2023-01-08T07:08:42;60.67;;;49.85;;
40867;SDS011;26586;50.708;22.412;2023-01-08T07:11:09;42.05;;;34.00;;
40867;SDS011;26586;50.708;22.412;2023-01-08T07:13:35;32.65;;;29.13;;
40867;SDS011;26586;50.708;22.412;2023-01-08T07:16:09;18.58;;;16.67;;
40867;SDS011;26586;50.708;22.412;2023-01-08T07:18:36;84.63;;;34.90;;
40867;SDS011;26586;50.708;22.412;2023-01-08T07:21:04;40.78;;;20.13;;
40867;SDS011;26586;50.708;22.412;2023-01-08T07:23:31;63.92;;;27.52;;
40867;SDS011;26586;50.708;22.412;2023-01-08T07:26:01;82.78;;;33.40;;
40867;SDS011;26586;50.708;22.412;2023-01-08T07:28:27;37.85;;;16.23;;
40867;SDS011;26586;50.708;22.412;2023-01-08T07:30:54;68.60;;;24.50;;
40867;SDS011;26586;50.708;22.412;2023-01-08T07:33:20;30.45;;;13.32;;
40867;SDS011;26586;50.708;22.412;2023-01-08T07:35:51;34.77;;;16.50;;
40867;SDS011;26586;50.708;22.412;2023-01-08T07:38:17;27.83;;;12.60;;
40867;SDS011;26586;50.708;22.412;2023-01-08T07:40:44;43.53;;;19.63;;
40867;SDS011;26586;50.708;22.412;2023-01-08T07:43:10;119.78;;;42.05;;
40867;SDS011;26586;50.708;22.412;2023-01-08T07:45:39;76.28;;;28.65;;
40867;SDS011;26586;50.708;22.412;2023-01-08T07:48:05;27.57;;;12.70;;
40867;SDS011;26586;50.708;22.412;2023-01-08T07:50:35;26.83;;;13.30;;
40867;SDS011;26586;50.708;22.412;2023-01-08T07:53:02;45.13;;;19.80;;
40867;SDS011;26586;50.708;22.412;2023-01-08T07:55:29;26.23;;;11.45;;
40867;SDS011;26586;50.708;22.412;2023-01-08T07:57:56;70.20;;;28.37;;
40867;SDS011;26586;50.708;22.412;2023-01-08T08:00:22;23.75;;;12.52;;
40867;SDS011;26586;50.708;22.412;2023-01-08T08:02:48;32.17;;;15.02;;
40867;SDS011;26586;50.708;22.412;2023-01-08T08:05:15;50.53;;;22.45;;
40867;SDS011;26586;50.708;22.412;2023-01-08T08:07:42;43.97;;;21.38;;
40867;SDS011;26586;50.708;22.412;2023-01-08T08:10:11;36.53;;;18.63;;
40867;SDS011;26586;50.708;22.412;2023-01-08T08:12:37;47.85;;;24.48;;
40867;SDS011;26586;50.708;22.412;2023-01-08T08:15:04;22.43;;;13.30;;
40867;SDS011;26586;50.708;22.412;2023-01-08T08:17:30;20.48;;;11.82;;
40867;SDS011;26586;50.708;22.412;2023-01-08T08:19:57;20.50;;;11.48;;
40867;SDS011;26586;50.708;22.412;2023-01-08T08:22:23;16.95;;;10.25;;
40867;SDS011;26586;50.708;22.412;2023-01-08T08:24:49;24.63;;;14.20;;
40867;SDS011;26586;50.708;22.412;2023-01-08T08:27:15;17.20;;;11.68;;
40867;SDS011;26586;50.708;22.412;2023-01-08T08:29:43;17.55;;;10.38;;
40867;SDS011;26586;50.708;22.412;2023-01-08T08:32:09;10.57;;;6.85;;
40867;SDS011;26586;50.708;22.412;2023-01-08T08:34:35;15.67;;;9.77;;
40867;SDS011;26586;50.708;22.412;2023-01-08T08:37:01;24.08;;;13.57;;
40867;SDS011;26586;50.708;22.412;2023-01-08T08:39:27;21.55;;;11.50;;
40867;SDS011;26586;50.708;22.412;2023-01-08T08:41:53;26.15;;;8.75;;
40867;SDS011;26586;50.708;22.412;2023-01-08T08:44:20;12.63;;;7.15;;
40867;SDS011;26586;50.708;22.412;2023-01-08T08:46:46;24.65;;;15.50;;
40867;SDS011;26586;50.708;22.412;2023-01-08T08:49:12;37.00;;;19.65;;
40867;SDS011;26586;50.708;22.412;2023-01-08T08:51:38;31.40;;;16.02;;
40867;SDS011;26586;50.708;22.412;2023-01-08T08:54:05;17.93;;;12.83;;
40867;SDS011;26586;50.708;22.412;2023-01-08T08:56:31;13.93;;;9.60;;
40867;SDS011;26586;50.708;22.412;2023-01-08T08:58:57;17.38;;;9.70;;
40867;SDS011;26586;50.708;22.412;2023-01-08T09:01:23;14.02;;;8.85;;
40867;SDS011;26586;50.708;22.412;2023-01-08T09:03:50;13.77;;;8.60;;
40867;SDS011;26586;50.708;22.412;2023-01-08T09:06:16;21.08;;;13.00;;
40867;SDS011;26586;50.708;22.412;2023-01-08T09:08:43;21.77;;;14.07;;
40867;SDS011;26586;50.708;22.412;2023-01-08T09:11:09;46.33;;;31.13;;
40867;SDS011;26586;50.708;22.412;2023-01-08T09:13:36;42.17;;;35.60;;
40867;SDS011;26586;50.708;22.412;2023-01-08T09:16:02;14.32;;;8.90;;
40867;SDS011;26586;50.708;22.412;2023-01-08T09:18:29;17.95;;;10.32;;
40867;SDS011;26586;50.708;22.412;2023-01-08T09:20:55;15.77;;;13.05;;
40867;SDS011;26586;50.708;22.412;2023-01-08T09:23:21;22.30;;;12.98;;
40867;SDS011;26586;50.708;22.412;2023-01-08T09:25:47;18.60;;;11.40;;
40867;SDS011;26586;50.708;22.412;2023-01-08T09:28:14;14.30;;;9.13;;
40867;SDS011;26586;50.708;22.412;2023-01-08T09:33:07;11.77;;;8.45;;
40867;SDS011;26586;50.708;22.412;2023-01-08T09:35:34;12.15;;;7.28;;
40867;SDS011;26586;50.708;22.412;2023-01-08T09:38:00;15.90;;;9.97;;
40867;SDS011;26586;50.708;22.412;2023-01-08T09:40:37;11.60;;;7.55;;
40867;SDS011;26586;50.708;22.412;2023-01-08T09:43:14;25.13;;;15.07;;
40867;SDS011;26586;50.708;22.412;2023-01-08T09:45:44;14.07;;;11.05;;
40867;SDS011;26586;50.708;22.412;2023-01-08T09:48:16;13.05;;;9.13;;
40867;SDS011;26586;50.708;22.412;2023-01-08T09:50:45;9.98;;;6.97;;
40867;SDS011;26586;50.708;22.412;2023-01-08T09:53:13;14.25;;;9.38;;
40867;SDS011;26586;50.708;22.412;2023-01-08T09:55:41;9.52;;;6.30;;
40867;SDS011;26586;50.708;22.412;2023-01-08T10:01:00;18.60;;;10.95;;
40867;SDS011;26586;50.708;22.412;2023-01-08T10:03:29;18.33;;;11.93;;
40867;SDS011;26586;50.708;22.412;2023-01-08T10:06:23;23.55;;;15.07;;
40867;SDS011;26586;50.708;22.412;2023-01-08T10:08:50;23.90;;;17.23;;
40867;SDS011;26586;50.708;22.412;2023-01-08T10:11:17;15.73;;;11.10;;
40867;SDS011;26586;50.708;22.412;2023-01-08T10:13:46;20.42;;;11.48;;
40867;SDS011;26586;50.708;22.412;2023-01-08T10:16:21;12.18;;;8.38;;
40867;SDS011;26586;50.708;22.412;2023-01-08T10:19:00;9.07;;;6.78;;
40867;SDS011;26586;50.708;22.412;2023-01-08T10:21:39;11.95;;;7.90;;
40867;SDS011;26586;50.708;22.412;2023-01-08T10:24:06;16.05;;;11.43;;
40867;SDS011;26586;50.708;22.412;2023-01-08T10:26:34;36.20;;;22.33;;
40867;SDS011;26586;50.708;22.412;2023-01-08T10:29:15;12.13;;;9.68;;
40867;SDS011;26586;50.708;22.412;2023-01-08T10:31:49;10.77;;;8.25;;
40867;SDS011;26586;50.708;22.412;2023-01-08T10:37:28;16.98;;;10.98;;
40867;SDS011;26586;50.708;22.412;2023-01-08T10:40:00;15.75;;;9.52;;
40867;SDS011;26586;50.708;22.412;2023-01-08T10:42:46;19.52;;;13.00;;
40867;SDS011;26586;50.708;22.412;2023-01-08T10:45:22;11.75;;;7.35;;
40867;SDS011;26586;50.708;22.412;2023-01-08T10:47:56;20.77;;;12.68;;
40867;SDS011;26586;50.708;22.412;2023-01-08T10:50:28;53.88;;;38.03;;
40867;SDS011;26586;50.708;22.412;2023-01-08T10:52:58;53.33;;;40.00;;
40867;SDS011;26586;50.708;22.412;2023-01-08T10:55:27;15.80;;;12.18;;
40867;SDS011;26586;50.708;22.412;2023-01-08T10:58:00;54.53;;;25.73;;
40867;SDS011;26586;50.708;22.412;2023-01-08T11:00:29;29.35;;;16.00;;
40867;SDS011;26586;50.708;22.412;2023-01-08T11:02:57;18.10;;;11.05;;
40867;SDS011;26586;50.708;22.412;2023-01-08T11:05:31;45.25;;;20.73;;
40867;SDS011;26586;50.708;22.412;2023-01-08T11:08:00;28.17;;;15.93;;
40867;SDS011;26586;50.708;22.412;2023-01-08T11:10:30;28.25;;;15.40;;
40867;SDS011;26586;50.708;22.412;2023-01-08T11:12:59;34.28;;;16.83;;
40867;SDS011;26586;50.708;22.412;2023-01-08T11:18:17;72.45;;;38.33;;
40867;SDS011;26586;50.708;22.412;2023-01-08T11:20:46;46.50;;;23.35;;
40867;SDS011;26586;50.708;22.412;2023-01-08T11:26:07;30.50;;;15.20;;
40867;SDS011;26586;50.708;22.412;2023-01-08T11:31:22;27.98;;;14.85;;
40867;SDS011;26586;50.708;22.412;2023-01-08T11:34:01;47.63;;;20.92;;
40867;SDS011;26586;50.708;22.412;2023-01-08T11:36:35;35.83;;;18.73;;
40867;SDS011;26586;50.708;22.412;2023-01-08T11:39:13;32.58;;;17.33;;
40867;SDS011;26586;50.708;22.412;2023-01-08T11:46:43;52.75;;;27.85;;
40867;SDS011;26586;50.708;22.412;2023-01-08T11:49:37;64.07;;;28.95;;
40867;SDS011;26586;50.708;22.412;2023-01-08T11:55:00;35.45;;;17.70;;
40867;SDS011;26586;50.708;22.412;2023-01-08T12:03:41;57.90;;;29.95;;
40867;SDS011;26586;50.708;22.412;2023-01-08T12:11:19;31.05;;;16.67;;
40867;SDS011;26586;50.708;22.412;2023-01-08T12:19:44;39.00;;;20.20;;
40867;SDS011;26586;50.708;22.412;2023-01-08T12:35:35;17.10;;;10.98;;
40867;SDS011;26586;50.708;22.412;2023-01-08T12:38:05;20.40;;;11.65;;
40867;SDS011;26586;50.708;22.412;2023-01-08T12:40:35;31.27;;;16.95;;
40867;SDS011;26586;50.708;22.412;2023-01-08T12:43:10;29.65;;;18.92;;
40867;SDS011;26586;50.708;22.412;2023-01-08T12:45:49;33.90;;;20.40;;
40867;SDS011;26586;50.708;22.412;2023-01-08T12:48:19;26.92;;;16.88;;
40867;SDS011;26586;50.708;22.412;2023-01-08T12:56:04;16.30;;;10.88;;
40867;SDS011;26586;50.708;22.412;2023-01-08T13:03:40;24.25;;;14.60;;
40867;SDS011;26586;50.708;22.412;2023-01-08T13:06:09;18.75;;;11.60;;
40867;SDS011;26586;50.708;22.412;2023-01-08T13:08:39;17.60;;;12.23;;
40867;SDS011;26586;50.708;22.412;2023-01-08T13:11:09;23.38;;;13.48;;
40867;SDS011;26586;50.708;22.412;2023-01-08T13:13:36;20.83;;;12.82;;
40867;SDS011;26586;50.708;22.412;2023-01-08T13:18:54;23.95;;;14.13;;
40867;SDS011;26586;50.708;22.412;2023-01-08T13:21:38;48.67;;;29.90;;
40867;SDS011;26586;50.708;22.412;2023-01-08T13:26:46;27.73;;;16.92;;
40867;SDS011;26586;50.708;22.412;2023-01-08T13:31:55;61.58;;;41.30;;
40867;SDS011;26586;50.708;22.412;2023-01-08T13:34:32;30.27;;;18.25;;
40867;SDS011;26586;50.708;22.412;2023-01-08T13:37:03;28.60;;;20.27;;
40867;SDS011;26586;50.708;22.412;2023-01-08T13:39:33;34.75;;;20.00;;
40867;SDS011;26586;50.708;22.412;2023-01-08T13:44:56;27.08;;;18.15;;
40867;SDS011;26586;50.708;22.412;2023-01-08T13:47:29;30.73;;;18.58;;
40867;SDS011;26586;50.708;22.412;2023-01-08T13:49:58;44.78;;;29.50;;
40867;SDS011;26586;50.708;22.412;2023-01-08T13:55:04;16.02;;;12.45;;
40867;SDS011;26586;50.708;22.412;2023-01-08T13:57:39;17.13;;;10.55;;
40867;SDS011;26586;50.708;22.412;2023-01-08T14:00:16;35.88;;;19.55;;
40867;SDS011;26586;50.708;22.412;2023-01-08T14:02:46;20.23;;;12.45;;
40867;SDS011;26586;50.708;22.412;2023-01-08T14:07:50;17.88;;;10.80;;
40867;SDS011;26586;50.708;22.412;2023-01-08T14:10:16;24.48;;;14.10;;
40867;SDS011;26586;50.708;22.412;2023-01-08T14:12:43;15.85;;;10.35;;
40867;SDS011;26586;50.708;22.412;2023-01-08T14:15:16;22.88;;;14.98;;
40867;SDS011;26586;50.708;22.412;2023-01-08T14:17:47;20.70;;;14.80;;
40867;SDS011;26586;50.708;22.412;2023-01-08T14:20:18;44.00;;;26.92;;
40867;SDS011;26586;50.708;22.412;2023-01-08T14:22:53;57.95;;;36.85;;
40867;SDS011;26586;50.708;22.412;2023-01-08T14:25:19;31.02;;;20.52;;
40867;SDS011;26586;50.708;22.412;2023-01-08T14:28:01;23.13;;;15.20;;
40867;SDS011;26586;50.708;22.412;2023-01-08T14:30:29;13.98;;;10.18;;
40867;SDS011;26586;50.708;22.412;2023-01-08T14:35:33;16.00;;;11.23;;
40867;SDS011;26586;50.708;22.412;2023-01-08T14:38:00;22.73;;;13.70;;
40867;SDS011;26586;50.708;22.412;2023-01-08T14:40:31;77.32;;;48.63;;
40867;SDS011;26586;50.708;22.412;2023-01-08T14:43:02;73.20;;;50.05;;
40867;SDS011;26586;50.708;22.412;2023-01-08T14:45:32;36.80;;;25.42;;
40867;SDS011;26586;50.708;22.412;2023-01-08T14:50:35;43.42;;;25.17;;
40867;SDS011;26586;50.708;22.412;2023-01-08T14:55:53;49.67;;;27.10;;
40867;SDS011;26586;50.708;22.412;2023-01-08T14:58:22;24.20;;;16.02;;
40867;SDS011;26586;50.708;22.412;2023-01-08T15:00:51;32.20;;;19.70;;
40867;SDS011;26586;50.708;22.412;2023-01-08T15:03:27;29.02;;;19.23;;
40867;SDS011;26586;50.708;22.412;2023-01-08T15:05:58;53.33;;;29.67;;
40867;SDS011;26586;50.708;22.412;2023-01-08T15:08:26;28.55;;;16.88;;
40867;SDS011;26586;50.708;22.412;2023-01-08T15:13:48;29.02;;;17.75;;
40867;SDS011;26586;50.708;22.412;2023-01-08T15:16:16;23.35;;;16.35;;
40867;SDS011;26586;50.708;22.412;2023-01-08T15:18:50;32.17;;;21.85;;
40867;SDS011;26586;50.708;22.412;2023-01-08T15:21:27;45.45;;;30.50;;
40867;SDS011;26586;50.708;22.412;2023-01-08T15:23:54;35.60;;;22.42;;
40867;SDS011;26586;50.708;22.412;2023-01-08T15:26:21;28.33;;;18.45;;
40867;SDS011;26586;50.708;22.412;2023-01-08T15:28:55;23.88;;;15.90;;
40867;SDS011;26586;50.708;22.412;2023-01-08T15:31:25;26.15;;;17.95;;
40867;SDS011;26586;50.708;22.412;2023-01-08T15:33:57;31.60;;;20.33;;
40867;SDS011;26586;50.708;22.412;2023-01-08T15:36:24;35.05;;;21.33;;
40867;SDS011;26586;50.708;22.412;2023-01-08T15:38:51;29.73;;;19.05;;
40867;SDS011;26586;50.708;22.412;2023-01-08T15:41:18;26.02;;;16.90;;
40867;SDS011;26586;50.708;22.412;2023-01-08T15:44:19;31.52;;;20.33;;
40867;SDS011;26586;50.708;22.412;2023-01-08T15:46:45;37.47;;;21.63;;
40867;SDS011;26586;50.708;22.412;2023-01-08T15:49:11;59.60;;;37.80;;
40867;SDS011;26586;50.708;22.412;2023-01-08T15:51:42;66.45;;;38.97;;
40867;SDS011;26586;50.708;22.412;2023-01-08T15:54:11;34.63;;;20.15;;
40867;SDS011;26586;50.708;22.412;2023-01-08T15:59:05;30.20;;;18.38;;
40867;SDS011;26586;50.708;22.412;2023-01-08T16:01:31;29.17;;;17.48;;
40867;SDS011;26586;50.708;22.412;2023-01-08T16:03:58;32.92;;;19.08;;
40867;SDS011;26586;50.708;22.412;2023-01-08T16:06:24;27.87;;;16.20;;
40867;SDS011;26586;50.708;22.412;2023-01-08T16:08:50;25.88;;;16.13;;
40867;SDS011;26586;50.708;22.412;2023-01-08T16:11:17;38.13;;;21.77;;
40867;SDS011;26586;50.708;22.412;2023-01-08T16:13:44;22.83;;;14.82;;
40867;SDS011;26586;50.708;22.412;2023-01-08T16:16:12;22.63;;;14.38;;
40867;SDS011;26586;50.708;22.412;2023-01-08T16:18:39;24.30;;;15.20;;
40867;SDS011;26586;50.708;22.412;2023-01-08T16:21:06;22.83;;;15.37;;
40867;SDS011;26586;50.708;22.412;2023-01-08T16:23:37;34.63;;;22.65;;
40867;SDS011;26586;50.708;22.412;2023-01-08T16:26:07;31.77;;;19.08;;
40867;SDS011;26586;50.708;22.412;2023-01-08T16:28:35;29.83;;;17.10;;
40867;SDS011;26586;50.708;22.412;2023-01-08T16:31:02;32.17;;;17.67;;
40867;SDS011;26586;50.708;22.412;2023-01-08T16:33:29;26.60;;;16.38;;
40867;SDS011;26586;50.708;22.412;2023-01-08T16:35:56;35.10;;;18.88;;
40867;SDS011;26586;50.708;22.412;2023-01-08T16:38:23;23.23;;;14.50;;